sensor_id;sensor_type;location;lat;lon;timestamp;P1;durP1;ratioP1;P2;durP2;ratioP2
19205;SDS011;59358;52.134;5.596;2023-03-05T00:02:15;18.08;;;3.92;;
19205;SDS011;59358;52.134;5.596;2023-03-05T00:04:43;9.38;;;3.28;;
19205;SDS011;59358;52.134;5.596;2023-03-05T00:07:10;12.98;;;3.00;;
19205;SDS011;59358;52.134;5.596;2023-03-05T00:09:38;11.48;;;3.92;;
19205;SDS011;59358;52.134;5.596;2023-03-05T00:12:05;20.13;;;4.45;;
19205;SDS011;59358;52.134;5.596;2023-03-05T00:14:33;12.95;;;4.38;;
19205;SDS011;59358;52.134;5.596;2023-03-05T00:17:00;13.57;;;3.15;;
19205;SDS011;59358;52.134;5.596;2023-03-05T00:19:26;9.45;;;2.75;;
19205;SDS011;59358;52.134;5.596;2023-03-05T00:21:55;12.82;;;3.67;;
19205;SDS011;59358;52.134;5.596;2023-03-05T00:24:21;11.68;;;3.35;;
19205;SDS011;59358;52.134;5.596;2023-03-05T00:26:48;8.13;;;2.75;;
19205;SDS011;59358;52.134;5.596;2023-03-05T00:29:16;12.43;;;2.95;;
19205;SDS011;59358;52.134;5.596;2023-03-05T00:31:46;12.40;;;3.70;;
19205;SDS011;59358;52.134;5.596;2023-03-05T00:34:13;14.02;;;3.53;;
19205;SDS011;59358;52.134;5.596;2023-03-05T00:36:41;11.32;;;3.50;;
19205;SDS011;59358;52.134;5.596;2023-03-05T00:39:12;10.68;;;3.40;;
19205;SDS011;59358;52.134;5.596;2023-03-05T00:41:39;8.75;;;3.35;;
19205;SDS011;59358;52.134;5.596;2023-03-05T00:44:06;13.30;;;2.90;;
19205;SDS011;59358;52.134;5.596;2023-03-05T00:46:33;9.98;;;2.60;;
19205;SDS011;59358;52.134;5.596;2023-03-05T00:49:01;5.97;;;2.67;;
19205;SDS011;59358;52.134;5.596;2023-03-05T00:51:28;12.80;;;4.00;;
19205;SDS011;59358;52.134;5.596;2023-03-05T00:53:54;12.55;;;3.10;;
19205;SDS011;59358;52.134;5.596;2023-03-05T00:56:23;11.55;;;4.25;;
19205;SDS011;59358;52.134;5.596;2023-03-05T00:58:50;10.07;;;2.92;;
19205;SDS011;59358;52.134;5.596;2023-03-05T01:01:17;11.07;;;3.30;;
19205;SDS011;59358;52.134;5.596;2023-03-05T01:03:44;12.25;;;2.90;;
19205;SDS011;59358;52.134;5.596;2023-03-05T01:06:11;13.88;;;2.88;;
19205;SDS011;59358;52.134;5.596;2023-03-05T01:08:39;9.07;;;3.67;;
19205;SDS011;59358;52.134;5.596;2023-03-05T01:11:06;8.40;;;3.55;;
19205;SDS011;59358;52.134;5.596;2023-03-05T01:13:35;9.73;;;3.70;;
19205;SDS011;59358;52.134;5.596;2023-03-05T01:16:03;13.07;;;3.72;;
19205;SDS011;59358;52.134;5.596;2023-03-05T01:18:30;13.57;;;3.47;;
19205;SDS011;59358;52.134;5.596;2023-03-05T01:20:57;10.95;;;3.38;;
19205;SDS011;59358;52.134;5.596;2023-03-05T01:23:24;18.10;;;4.80;;
19205;SDS011;59358;52.134;5.596;2023-03-05T01:25:52;9.18;;;3.20;;
19205;SDS011;59358;52.134;5.596;2023-03-05T01:28:19;11.93;;;3.40;;
19205;SDS011;59358;52.134;5.596;2023-03-05T01:30:47;8.98;;;3.00;;
19205;SDS011;59358;52.134;5.596;2023-03-05T01:33:17;10.38;;;2.78;;
19205;SDS011;59358;52.134;5.596;2023-03-05T01:35:44;11.15;;;2.92;;
19205;SDS011;59358;52.134;5.596;2023-03-05T01:38:12;11.68;;;2.90;;
19205;SDS011;59358;52.134;5.596;2023-03-05T01:40:39;8.90;;;2.60;;
19205;SDS011;59358;52.134;5.596;2023-03-05T01:43:14;14.43;;;3.05;;
19205;SDS011;59358;52.134;5.596;2023-03-05T01:48:57;11.18;;;3.03;;
19205;SDS011;59358;52.134;5.596;2023-03-05T01:51:39;11.65;;;3.05;;
19205;SDS011;59358;52.134;5.596;2023-03-05T01:54:10;7.60;;;3.85;;
19205;SDS011;59358;52.134;5.596;2023-03-05T01:56:39;10.20;;;3.47;;
19205;SDS011;59358;52.134;5.596;2023-03-05T01:59:07;10.48;;;3.30;;
19205;SDS011;59358;52.134;5.596;2023-03-05T02:01:36;14.55;;;3.67;;
19205;SDS011;59358;52.134;5.596;2023-03-05T02:04:06;10.32;;;4.47;;
19205;SDS011;59358;52.134;5.596;2023-03-05T02:06:34;9.77;;;3.45;;
19205;SDS011;59358;52.134;5.596;2023-03-05T02:09:05;12.85;;;3.67;;
19205;SDS011;59358;52.134;5.596;2023-03-05T02:11:32;18.20;;;4.15;;
19205;SDS011;59358;52.134;5.596;2023-03-05T02:14:00;10.02;;;4.20;;
19205;SDS011;59358;52.134;5.596;2023-03-05T02:16:27;12.90;;;4.28;;
19205;SDS011;59358;52.134;5.596;2023-03-05T02:18:59;15.48;;;4.07;;
19205;SDS011;59358;52.134;5.596;2023-03-05T02:21:35;16.17;;;4.10;;
19205;SDS011;59358;52.134;5.596;2023-03-05T02:24:03;14.30;;;4.60;;
19205;SDS011;59358;52.134;5.596;2023-03-05T02:26:30;13.82;;;4.38;;
19205;SDS011;59358;52.134;5.596;2023-03-05T02:28:58;12.70;;;4.63;;
19205;SDS011;59358;52.134;5.596;2023-03-05T02:31:27;15.77;;;3.90;;
19205;SDS011;59358;52.134;5.596;2023-03-05T02:33:55;9.25;;;3.80;;
19205;SDS011;59358;52.134;5.596;2023-03-05T02:36:22;9.93;;;3.85;;
19205;SDS011;59358;52.134;5.596;2023-03-05T02:38:50;11.30;;;4.00;;
19205;SDS011;59358;52.134;5.596;2023-03-05T02:41:18;16.33;;;3.85;;
19205;SDS011;59358;52.134;5.596;2023-03-05T02:43:45;11.20;;;3.78;;
19205;SDS011;59358;52.134;5.596;2023-03-05T02:46:12;12.30;;;3.95;;
19205;SDS011;59358;52.134;5.596;2023-03-05T02:48:38;10.93;;;3.58;;
19205;SDS011;59358;52.134;5.596;2023-03-05T02:51:06;21.35;;;3.80;;
19205;SDS011;59358;52.134;5.596;2023-03-05T02:53:33;14.43;;;4.18;;
19205;SDS011;59358;52.134;5.596;2023-03-05T02:56:01;15.02;;;4.15;;
19205;SDS011;59358;52.134;5.596;2023-03-05T02:58:28;6.82;;;4.07;;
19205;SDS011;59358;52.134;5.596;2023-03-05T03:00:55;12.18;;;3.65;;
19205;SDS011;59358;52.134;5.596;2023-03-05T03:03:22;9.60;;;3.72;;
19205;SDS011;59358;52.134;5.596;2023-03-05T03:05:49;15.20;;;3.88;;
19205;SDS011;59358;52.134;5.596;2023-03-05T03:08:16;11.02;;;3.85;;
19205;SDS011;59358;52.134;5.596;2023-03-05T03:10:42;14.35;;;3.63;;
19205;SDS011;59358;52.134;5.596;2023-03-05T03:13:10;11.23;;;4.80;;
19205;SDS011;59358;52.134;5.596;2023-03-05T03:15:37;13.77;;;4.50;;
19205;SDS011;59358;52.134;5.596;2023-03-05T03:18:04;19.30;;;4.93;;
19205;SDS011;59358;52.134;5.596;2023-03-05T03:20:31;21.92;;;5.05;;
19205;SDS011;59358;52.134;5.596;2023-03-05T03:22:59;12.60;;;4.63;;
19205;SDS011;59358;52.134;5.596;2023-03-05T03:25:26;17.45;;;5.47;;
19205;SDS011;59358;52.134;5.596;2023-03-05T03:27:53;16.83;;;4.53;;
19205;SDS011;59358;52.134;5.596;2023-03-05T03:30:21;12.23;;;4.32;;
19205;SDS011;59358;52.134;5.596;2023-03-05T03:32:49;22.77;;;6.57;;
19205;SDS011;59358;52.134;5.596;2023-03-05T03:35:17;8.80;;;4.20;;
19205;SDS011;59358;52.134;5.596;2023-03-05T03:37:44;12.90;;;4.78;;
19205;SDS011;59358;52.134;5.596;2023-03-05T03:40:11;11.18;;;5.10;;
19205;SDS011;59358;52.134;5.596;2023-03-05T03:42:38;14.50;;;4.93;;
19205;SDS011;59358;52.134;5.596;2023-03-05T03:45:05;16.67;;;5.57;;
19205;SDS011;59358;52.134;5.596;2023-03-05T03:47:34;14.20;;;4.57;;
19205;SDS011;59358;52.134;5.596;2023-03-05T03:50:01;19.33;;;5.75;;
19205;SDS011;59358;52.134;5.596;2023-03-05T03:52:29;17.38;;;4.82;;
19205;SDS011;59358;52.134;5.596;2023-03-05T03:54:55;17.10;;;4.93;;
19205;SDS011;59358;52.134;5.596;2023-03-05T03:57:25;11.85;;;4.70;;
19205;SDS011;59358;52.134;5.596;2023-03-05T03:59:53;14.32;;;4.30;;
19205;SDS011;59358;52.134;5.596;2023-03-05T04:02:20;14.07;;;4.47;;
19205;SDS011;59358;52.134;5.596;2023-03-05T04:04:48;14.98;;;4.70;;
19205;SDS011;59358;52.134;5.596;2023-03-05T04:07:15;17.15;;;5.05;;
19205;SDS011;59358;52.134;5.596;2023-03-05T04:09:42;11.88;;;4.90;;
19205;SDS011;59358;52.134;5.596;2023-03-05T04:12:09;12.50;;;4.25;;
19205;SDS011;59358;52.134;5.596;2023-03-05T04:14:41;13.52;;;4.65;;
19205;SDS011;59358;52.134;5.596;2023-03-05T04:17:09;13.30;;;4.00;;
19205;SDS011;59358;52.134;5.596;2023-03-05T04:19:37;13.57;;;4.10;;
19205;SDS011;59358;52.134;5.596;2023-03-05T04:22:05;15.23;;;4.38;;
19205;SDS011;59358;52.134;5.596;2023-03-05T04:24:32;8.45;;;4.15;;
19205;SDS011;59358;52.134;5.596;2023-03-05T04:26:59;11.18;;;4.15;;
19205;SDS011;59358;52.134;5.596;2023-03-05T04:29:26;9.13;;;3.60;;
19205;SDS011;59358;52.134;5.596;2023-03-05T04:31:53;11.48;;;4.50;;
19205;SDS011;59358;52.134;5.596;2023-03-05T04:34:20;8.25;;;3.85;;
19205;SDS011;59358;52.134;5.596;2023-03-05T04:36:46;10.65;;;4.20;;
19205;SDS011;59358;52.134;5.596;2023-03-05T04:39:14;9.98;;;3.80;;
19205;SDS011;59358;52.134;5.596;2023-03-05T04:41:41;14.18;;;4.25;;
19205;SDS011;59358;52.134;5.596;2023-03-05T04:44:08;13.10;;;4.30;;
19205;SDS011;59358;52.134;5.596;2023-03-05T04:46:35;11.25;;;3.88;;
19205;SDS011;59358;52.134;5.596;2023-03-05T04:49:02;5.15;;;3.20;;
19205;SDS011;59358;52.134;5.596;2023-03-05T04:51:29;8.30;;;4.07;;
19205;SDS011;59358;52.134;5.596;2023-03-05T04:53:56;9.00;;;3.70;;
19205;SDS011;59358;52.134;5.596;2023-03-05T04:56:24;13.10;;;4.05;;
19205;SDS011;59358;52.134;5.596;2023-03-05T04:58:51;9.48;;;3.63;;
19205;SDS011;59358;52.134;5.596;2023-03-05T05:01:18;10.35;;;4.97;;
19205;SDS011;59358;52.134;5.596;2023-03-05T05:03:44;8.20;;;3.95;;
19205;SDS011;59358;52.134;5.596;2023-03-05T05:06:11;8.57;;;3.90;;
19205;SDS011;59358;52.134;5.596;2023-03-05T05:08:38;10.40;;;3.75;;
19205;SDS011;59358;52.134;5.596;2023-03-05T05:11:05;9.75;;;3.92;;
19205;SDS011;59358;52.134;5.596;2023-03-05T05:13:34;9.20;;;3.88;;
19205;SDS011;59358;52.134;5.596;2023-03-05T05:16:01;13.50;;;4.72;;
19205;SDS011;59358;52.134;5.596;2023-03-05T05:18:31;11.68;;;4.05;;
19205;SDS011;59358;52.134;5.596;2023-03-05T05:20:58;7.78;;;4.03;;
19205;SDS011;59358;52.134;5.596;2023-03-05T05:23:25;10.10;;;4.28;;
19205;SDS011;59358;52.134;5.596;2023-03-05T05:25:56;14.55;;;3.50;;
19205;SDS011;59358;52.134;5.596;2023-03-05T05:28:23;10.35;;;4.20;;
19205;SDS011;59358;52.134;5.596;2023-03-05T05:30:52;16.73;;;4.90;;
19205;SDS011;59358;52.134;5.596;2023-03-05T05:33:19;10.23;;;3.80;;
19205;SDS011;59358;52.134;5.596;2023-03-05T05:35:46;8.98;;;3.92;;
19205;SDS011;59358;52.134;5.596;2023-03-05T05:38:13;11.35;;;4.22;;
19205;SDS011;59358;52.134;5.596;2023-03-05T05:40:40;8.73;;;3.80;;
19205;SDS011;59358;52.134;5.596;2023-03-05T05:43:07;9.45;;;4.45;;
19205;SDS011;59358;52.134;5.596;2023-03-05T05:45:36;11.50;;;3.80;;
19205;SDS011;59358;52.134;5.596;2023-03-05T05:48:05;11.13;;;3.40;;
19205;SDS011;59358;52.134;5.596;2023-03-05T05:50:32;11.55;;;3.85;;
19205;SDS011;59358;52.134;5.596;2023-03-05T05:52:59;10.35;;;3.67;;
19205;SDS011;59358;52.134;5.596;2023-03-05T05:55:26;11.30;;;3.92;;
19205;SDS011;59358;52.134;5.596;2023-03-05T05:57:53;9.38;;;3.47;;
19205;SDS011;59358;52.134;5.596;2023-03-05T06:00:20;5.68;;;2.75;;
19205;SDS011;59358;52.134;5.596;2023-03-05T06:02:47;12.05;;;3.10;;
19205;SDS011;59358;52.134;5.596;2023-03-05T06:05:16;8.98;;;3.45;;
19205;SDS011;59358;52.134;5.596;2023-03-05T06:07:42;9.13;;;3.17;;
19205;SDS011;59358;52.134;5.596;2023-03-05T06:10:10;9.48;;;3.40;;
19205;SDS011;59358;52.134;5.596;2023-03-05T06:12:37;13.70;;;3.35;;
19205;SDS011;59358;52.134;5.596;2023-03-05T06:15:04;9.43;;;3.70;;
19205;SDS011;59358;52.134;5.596;2023-03-05T06:17:32;8.18;;;3.25;;
19205;SDS011;59358;52.134;5.596;2023-03-05T06:19:59;9.20;;;2.80;;
19205;SDS011;59358;52.134;5.596;2023-03-05T06:22:27;5.40;;;2.78;;
19205;SDS011;59358;52.134;5.596;2023-03-05T06:24:54;10.32;;;3.28;;
19205;SDS011;59358;52.134;5.596;2023-03-05T06:27:21;6.68;;;3.55;;
19205;SDS011;59358;52.134;5.596;2023-03-05T06:29:50;6.05;;;3.97;;
19205;SDS011;59358;52.134;5.596;2023-03-05T06:32:17;12.00;;;3.67;;
19205;SDS011;59358;52.134;5.596;2023-03-05T06:34:44;6.53;;;3.42;;
19205;SDS011;59358;52.134;5.596;2023-03-05T06:37:11;7.15;;;3.72;;
19205;SDS011;59358;52.134;5.596;2023-03-05T06:39:39;11.93;;;3.50;;
19205;SDS011;59358;52.134;5.596;2023-03-05T06:42:06;11.90;;;3.78;;
19205;SDS011;59358;52.134;5.596;2023-03-05T06:44:34;10.07;;;3.85;;
19205;SDS011;59358;52.134;5.596;2023-03-05T06:47:03;9.82;;;3.63;;
19205;SDS011;59358;52.134;5.596;2023-03-05T06:49:31;9.30;;;4.03;;
19205;SDS011;59358;52.134;5.596;2023-03-05T06:51:57;10.32;;;4.47;;
19205;SDS011;59358;52.134;5.596;2023-03-05T06:54:25;8.88;;;4.13;;
19205;SDS011;59358;52.134;5.596;2023-03-05T06:56:53;10.27;;;4.03;;
19205;SDS011;59358;52.134;5.596;2023-03-05T06:59:21;11.27;;;3.88;;
19205;SDS011;59358;52.134;5.596;2023-03-05T07:01:48;8.55;;;3.95;;
19205;SDS011;59358;52.134;5.596;2023-03-05T07:04:15;10.68;;;4.22;;
19205;SDS011;59358;52.134;5.596;2023-03-05T07:06:42;8.45;;;4.07;;
19205;SDS011;59358;52.134;5.596;2023-03-05T07:09:10;13.20;;;3.85;;
19205;SDS011;59358;52.134;5.596;2023-03-05T07:11:39;8.10;;;3.80;;
19205;SDS011;59358;52.134;5.596;2023-03-05T07:14:08;11.18;;;3.83;;
19205;SDS011;59358;52.134;5.596;2023-03-05T07:16:35;8.07;;;4.80;;
19205;SDS011;59358;52.134;5.596;2023-03-05T07:19:02;11.48;;;4.85;;
19205;SDS011;59358;52.134;5.596;2023-03-05T07:21:32;16.90;;;7.03;;
19205;SDS011;59358;52.134;5.596;2023-03-05T07:24:00;11.20;;;5.68;;
19205;SDS011;59358;52.134;5.596;2023-03-05T07:26:28;9.93;;;4.85;;
19205;SDS011;59358;52.134;5.596;2023-03-05T07:28:57;11.45;;;4.65;;
19205;SDS011;59358;52.134;5.596;2023-03-05T07:31:26;10.98;;;4.75;;
19205;SDS011;59358;52.134;5.596;2023-03-05T07:33:56;9.98;;;4.53;;
19205;SDS011;59358;52.134;5.596;2023-03-05T07:36:24;8.68;;;4.22;;
19205;SDS011;59358;52.134;5.596;2023-03-05T07:38:52;12.70;;;3.90;;
19205;SDS011;59358;52.134;5.596;2023-03-05T07:41:19;10.00;;;3.90;;
19205;SDS011;59358;52.134;5.596;2023-03-05T07:43:48;12.98;;;3.80;;
19205;SDS011;59358;52.134;5.596;2023-03-05T07:46:16;9.85;;;3.70;;
19205;SDS011;59358;52.134;5.596;2023-03-05T07:48:45;14.95;;;4.05;;
19205;SDS011;59358;52.134;5.596;2023-03-05T07:51:13;7.18;;;3.60;;
19205;SDS011;59358;52.134;5.596;2023-03-05T07:53:41;7.50;;;3.80;;
19205;SDS011;59358;52.134;5.596;2023-03-05T07:56:09;9.75;;;3.83;;
19205;SDS011;59358;52.134;5.596;2023-03-05T07:58:36;10.48;;;3.75;;
19205;SDS011;59358;52.134;5.596;2023-03-05T08:01:03;8.38;;;4.00;;
19205;SDS011;59358;52.134;5.596;2023-03-05T08:03:36;9.27;;;3.55;;
19205;SDS011;59358;52.134;5.596;2023-03-05T08:06:05;15.38;;;4.43;;
19205;SDS011;59358;52.134;5.596;2023-03-05T08:08:36;11.98;;;4.35;;
19205;SDS011;59358;52.134;5.596;2023-03-05T08:11:04;8.65;;;3.83;;
19205;SDS011;59358;52.134;5.596;2023-03-05T08:13:34;9.73;;;4.53;;
19205;SDS011;59358;52.134;5.596;2023-03-05T08:16:03;5.72;;;3.63;;
19205;SDS011;59358;52.134;5.596;2023-03-05T08:18:31;9.30;;;4.25;;
19205;SDS011;59358;52.134;5.596;2023-03-05T08:20:58;9.93;;;5.20;;
19205;SDS011;59358;52.134;5.596;2023-03-05T08:23:26;13.13;;;6.07;;
19205;SDS011;59358;52.134;5.596;2023-03-05T08:25:53;10.75;;;4.70;;
19205;SDS011;59358;52.134;5.596;2023-03-05T08:28:20;7.88;;;4.38;;
19205;SDS011;59358;52.134;5.596;2023-03-05T08:30:47;9.02;;;4.38;;
19205;SDS011;59358;52.134;5.596;2023-03-05T08:33:14;10.82;;;4.10;;
19205;SDS011;59358;52.134;5.596;2023-03-05T08:35:42;10.75;;;3.97;;
19205;SDS011;59358;52.134;5.596;2023-03-05T08:38:09;10.38;;;3.40;;
19205;SDS011;59358;52.134;5.596;2023-03-05T08:40:37;8.38;;;3.55;;
19205;SDS011;59358;52.134;5.596;2023-03-05T08:43:04;6.85;;;3.90;;
19205;SDS011;59358;52.134;5.596;2023-03-05T08:45:31;6.65;;;4.15;;
19205;SDS011;59358;52.134;5.596;2023-03-05T08:47:58;8.27;;;4.05;;
19205;SDS011;59358;52.134;5.596;2023-03-05T08:50:25;8.75;;;3.58;;
19205;SDS011;59358;52.134;5.596;2023-03-05T08:52:52;26.27;;;12.73;;
19205;SDS011;59358;52.134;5.596;2023-03-05T08:55:20;12.07;;;6.85;;
19205;SDS011;59358;52.134;5.596;2023-03-05T08:57:49;8.05;;;3.10;;
19205;SDS011;59358;52.134;5.596;2023-03-05T09:00:16;7.22;;;3.88;;
19205;SDS011;59358;52.134;5.596;2023-03-05T09:02:43;5.63;;;2.90;;
19205;SDS011;59358;52.134;5.596;2023-03-05T09:05:10;5.10;;;2.60;;
19205;SDS011;59358;52.134;5.596;2023-03-05T09:07:37;4.85;;;3.05;;
19205;SDS011;59358;52.134;5.596;2023-03-05T09:10:07;11.43;;;7.20;;
19205;SDS011;59358;52.134;5.596;2023-03-05T09:12:36;3.60;;;2.80;;
19205;SDS011;59358;52.134;5.596;2023-03-05T09:15:05;3.80;;;2.08;;
19205;SDS011;59358;52.134;5.596;2023-03-05T09:17:33;5.68;;;2.88;;
19205;SDS011;59358;52.134;5.596;2023-03-05T09:20:01;5.55;;;3.03;;
19205;SDS011;59358;52.134;5.596;2023-03-05T09:22:29;6.70;;;2.10;;
19205;SDS011;59358;52.134;5.596;2023-03-05T09:24:58;4.93;;;2.60;;
19205;SDS011;59358;52.134;5.596;2023-03-05T09:27:24;6.18;;;5.13;;
19205;SDS011;59358;52.134;5.596;2023-03-05T09:29:51;9.38;;;6.15;;
19205;SDS011;59358;52.134;5.596;2023-03-05T09:32:19;10.60;;;5.47;;
19205;SDS011;59358;52.134;5.596;2023-03-05T09:34:47;5.22;;;1.70;;
19205;SDS011;59358;52.134;5.596;2023-03-05T09:37:13;19.05;;;10.52;;
19205;SDS011;59358;52.134;5.596;2023-03-05T09:39:40;8.90;;;3.75;;
19205;SDS011;59358;52.134;5.596;2023-03-05T09:42:12;6.50;;;3.47;;
19205;SDS011;59358;52.134;5.596;2023-03-05T09:45:08;10.45;;;4.03;;
19205;SDS011;59358;52.134;5.596;2023-03-05T09:47:47;3.67;;;2.40;;
19205;SDS011;59358;52.134;5.596;2023-03-05T09:50:22;6.55;;;2.72;;
19205;SDS011;59358;52.134;5.596;2023-03-05T09:52:58;5.40;;;1.95;;
19205;SDS011;59358;52.134;5.596;2023-03-05T09:55:32;6.55;;;3.80;;
19205;SDS011;59358;52.134;5.596;2023-03-05T09:58:05;7.30;;;3.38;;
19205;SDS011;59358;52.134;5.596;2023-03-05T10:00:37;3.97;;;2.28;;
19205;SDS011;59358;52.134;5.596;2023-03-05T10:03:11;4.45;;;1.90;;
19205;SDS011;59358;52.134;5.596;2023-03-05T10:05:46;6.97;;;2.58;;
19205;SDS011;59358;52.134;5.596;2023-03-05T10:08:30;6.80;;;3.40;;
19205;SDS011;59358;52.134;5.596;2023-03-05T10:11:09;4.18;;;2.03;;
19205;SDS011;59358;52.134;5.596;2023-03-05T10:13:47;4.63;;;1.90;;
19205;SDS011;59358;52.134;5.596;2023-03-05T10:16:23;7.63;;;4.20;;
19205;SDS011;59358;52.134;5.596;2023-03-05T10:19:03;8.48;;;4.47;;
19205;SDS011;59358;52.134;5.596;2023-03-05T10:21:38;3.85;;;2.45;;
19205;SDS011;59358;52.134;5.596;2023-03-05T10:24:09;6.75;;;3.78;;
19205;SDS011;59358;52.134;5.596;2023-03-05T10:26:49;2.42;;;1.67;;
19205;SDS011;59358;52.134;5.596;2023-03-05T10:29:43;7.82;;;3.10;;
19205;SDS011;59358;52.134;5.596;2023-03-05T10:32:31;6.90;;;3.17;;
19205;SDS011;59358;52.134;5.596;2023-03-05T10:35:11;5.70;;;2.03;;
19205;SDS011;59358;52.134;5.596;2023-03-05T10:40:37;5.45;;;3.72;;
19205;SDS011;59358;52.134;5.596;2023-03-05T10:43:13;4.88;;;2.42;;
19205;SDS011;59358;52.134;5.596;2023-03-05T10:45:47;5.28;;;2.47;;
19205;SDS011;59358;52.134;5.596;2023-03-05T10:48:20;3.33;;;1.67;;
19205;SDS011;59358;52.134;5.596;2023-03-05T10:50:54;3.20;;;1.58;;
19205;SDS011;59358;52.134;5.596;2023-03-05T10:53:27;4.45;;;1.70;;
19205;SDS011;59358;52.134;5.596;2023-03-05T10:55:59;2.90;;;2.03;;
19205;SDS011;59358;52.134;5.596;2023-03-05T10:58:27;4.15;;;1.95;;
19205;SDS011;59358;52.134;5.596;2023-03-05T11:00:59;3.50;;;1.65;;
19205;SDS011;59358;52.134;5.596;2023-03-05T11:03:44;5.35;;;2.10;;
19205;SDS011;59358;52.134;5.596;2023-03-05T11:06:15;4.55;;;2.00;;
19205;SDS011;59358;52.134;5.596;2023-03-05T11:08:54;2.30;;;1.50;;
19205;SDS011;59358;52.134;5.596;2023-03-05T11:11:22;4.30;;;1.83;;
19205;SDS011;59358;52.134;5.596;2023-03-05T11:13:50;2.72;;;1.27;;
19205;SDS011;59358;52.134;5.596;2023-03-05T11:16:20;5.47;;;1.60;;
19205;SDS011;59358;52.134;5.596;2023-03-05T11:18:49;6.68;;;1.30;;
19205;SDS011;59358;52.134;5.596;2023-03-05T11:21:43;2.35;;;1.50;;
19205;SDS011;59358;52.134;5.596;2023-03-05T11:24:12;1.50;;;1.20;;
19205;SDS011;59358;52.134;5.596;2023-03-05T11:26:47;4.43;;;1.70;;
19205;SDS011;59358;52.134;5.596;2023-03-05T11:29:16;4.03;;;1.88;;
19205;SDS011;59358;52.134;5.596;2023-03-05T11:31:45;3.80;;;1.60;;
19205;SDS011;59358;52.134;5.596;2023-03-05T11:34:25;6.80;;;2.72;;
19205;SDS011;59358;52.134;5.596;2023-03-05T11:37:01;4.10;;;1.85;;
19205;SDS011;59358;52.134;5.596;2023-03-05T11:39:31;5.18;;;1.10;;
19205;SDS011;59358;52.134;5.596;2023-03-05T11:42:02;5.57;;;1.42;;
19205;SDS011;59358;52.134;5.596;2023-03-05T11:44:32;5.07;;;4.30;;
19205;SDS011;59358;52.134;5.596;2023-03-05T11:47:12;4.15;;;2.00;;
19205;SDS011;59358;52.134;5.596;2023-03-05T11:49:49;2.88;;;1.40;;
19205;SDS011;59358;52.134;5.596;2023-03-05T11:52:23;2.50;;;1.23;;
19205;SDS011;59358;52.134;5.596;2023-03-05T11:54:53;4.28;;;1.08;;
19205;SDS011;59358;52.134;5.596;2023-03-05T11:57:28;5.55;;;0.80;;
19205;SDS011;59358;52.134;5.596;2023-03-05T12:00:05;3.17;;;1.30;;
19205;SDS011;59358;52.134;5.596;2023-03-05T12:02:36;5.82;;;1.48;;
19205;SDS011;59358;52.134;5.596;2023-03-05T12:05:04;3.42;;;1.20;;
19205;SDS011;59358;52.134;5.596;2023-03-05T12:07:34;6.18;;;1.15;;
19205;SDS011;59358;52.134;5.596;2023-03-05T12:10:05;3.65;;;0.98;;
19205;SDS011;59358;52.134;5.596;2023-03-05T12:12:39;2.42;;;1.00;;
19205;SDS011;59358;52.134;5.596;2023-03-05T12:15:24;6.47;;;1.70;;
19205;SDS011;59358;52.134;5.596;2023-03-05T12:18:06;9.27;;;3.33;;
19205;SDS011;59358;52.134;5.596;2023-03-05T12:20:44;3.45;;;1.30;;
19205;SDS011;59358;52.134;5.596;2023-03-05T12:23:20;3.55;;;1.20;;
19205;SDS011;59358;52.134;5.596;2023-03-05T12:25:48;6.78;;;0.90;;
19205;SDS011;59358;52.134;5.596;2023-03-05T12:28:16;1.83;;;0.70;;
19205;SDS011;59358;52.134;5.596;2023-03-05T12:31:25;2.35;;;0.85;;
19205;SDS011;59358;52.134;5.596;2023-03-05T12:37:01;2.38;;;1.05;;
19205;SDS011;59358;52.134;5.596;2023-03-05T12:39:45;6.03;;;0.90;;
19205;SDS011;59358;52.134;5.596;2023-03-05T12:45:29;3.75;;;2.30;;
19205;SDS011;59358;52.134;5.596;2023-03-05T12:51:11;3.78;;;1.50;;
19205;SDS011;59358;52.134;5.596;2023-03-05T12:53:58;3.90;;;1.30;;
19205;SDS011;59358;52.134;5.596;2023-03-05T12:56:59;3.33;;;1.80;;
19205;SDS011;59358;52.134;5.596;2023-03-05T12:59:29;2.28;;;0.60;;
19205;SDS011;59358;52.134;5.596;2023-03-05T13:02:12;2.45;;;1.10;;
19205;SDS011;59358;52.134;5.596;2023-03-05T13:04:52;3.85;;;1.45;;
19205;SDS011;59358;52.134;5.596;2023-03-05T13:07:23;4.68;;;2.15;;
19205;SDS011;59358;52.134;5.596;2023-03-05T13:09:50;10.15;;;5.47;;
19205;SDS011;59358;52.134;5.596;2023-03-05T13:12:19;6.20;;;2.33;;
19205;SDS011;59358;52.134;5.596;2023-03-05T13:14:47;2.92;;;0.75;;
19205;SDS011;59358;52.134;5.596;2023-03-05T13:17:35;3.20;;;1.00;;
19205;SDS011;59358;52.134;5.596;2023-03-05T13:25:54;3.50;;;1.25;;
19205;SDS011;59358;52.134;5.596;2023-03-05T13:28:23;2.97;;;1.20;;
19205;SDS011;59358;52.134;5.596;2023-03-05T13:30:50;2.92;;;1.60;;
19205;SDS011;59358;52.134;5.596;2023-03-05T13:33:21;2.80;;;1.02;;
19205;SDS011;59358;52.134;5.596;2023-03-05T13:35:51;5.80;;;0.90;;
19205;SDS011;59358;52.134;5.596;2023-03-05T13:38:20;8.43;;;3.20;;
19205;SDS011;59358;52.134;5.596;2023-03-05T13:41:02;3.22;;;1.40;;
19205;SDS011;59358;52.134;5.596;2023-03-05T13:47:20;3.33;;;1.73;;
19205;SDS011;59358;52.134;5.596;2023-03-05T13:50:01;2.58;;;0.80;;
19205;SDS011;59358;52.134;5.596;2023-03-05T13:52:33;4.90;;;3.17;;
19205;SDS011;59358;52.134;5.596;2023-03-05T13:55:01;5.57;;;2.35;;
19205;SDS011;59358;52.134;5.596;2023-03-05T13:57:33;4.90;;;2.75;;
19205;SDS011;59358;52.134;5.596;2023-03-05T14:00:04;4.07;;;1.05;;
19205;SDS011;59358;52.134;5.596;2023-03-05T14:02:32;1.88;;;0.95;;
19205;SDS011;59358;52.134;5.596;2023-03-05T14:05:00;1.75;;;1.00;;
19205;SDS011;59358;52.134;5.596;2023-03-05T14:07:29;1.10;;;0.73;;
19205;SDS011;59358;52.134;5.596;2023-03-05T14:09:58;3.88;;;0.90;;
19205;SDS011;59358;52.134;5.596;2023-03-05T14:12:28;3.03;;;1.25;;
19205;SDS011;59358;52.134;5.596;2023-03-05T14:14:58;4.47;;;1.75;;
19205;SDS011;59358;52.134;5.596;2023-03-05T14:17:29;7.30;;;1.80;;
19205;SDS011;59358;52.134;5.596;2023-03-05T14:20:16;1.63;;;1.13;;
19205;SDS011;59358;52.134;5.596;2023-03-05T14:22:48;2.72;;;1.00;;
19205;SDS011;59358;52.134;5.596;2023-03-05T14:25:26;3.28;;;0.93;;
19205;SDS011;59358;52.134;5.596;2023-03-05T14:28:03;3.08;;;1.48;;
19205;SDS011;59358;52.134;5.596;2023-03-05T14:30:32;4.78;;;1.70;;
19205;SDS011;59358;52.134;5.596;2023-03-05T14:33:00;8.18;;;4.32;;
19205;SDS011;59358;52.134;5.596;2023-03-05T14:35:29;3.45;;;1.83;;
19205;SDS011;59358;52.134;5.596;2023-03-05T14:37:56;3.22;;;1.20;;
19205;SDS011;59358;52.134;5.596;2023-03-05T14:40:28;3.45;;;1.90;;
19205;SDS011;59358;52.134;5.596;2023-03-05T14:42:57;4.32;;;3.55;;
19205;SDS011;59358;52.134;5.596;2023-03-05T14:45:25;4.57;;;1.58;;
19205;SDS011;59358;52.134;5.596;2023-03-05T14:47:54;3.45;;;1.10;;
19205;SDS011;59358;52.134;5.596;2023-03-05T14:50:23;3.17;;;1.25;;
19205;SDS011;59358;52.134;5.596;2023-03-05T14:52:53;4.40;;;2.15;;
19205;SDS011;59358;52.134;5.596;2023-03-05T14:55:23;6.95;;;5.00;;
19205;SDS011;59358;52.134;5.596;2023-03-05T14:57:53;6.13;;;3.45;;
19205;SDS011;59358;52.134;5.596;2023-03-05T15:00:26;8.02;;;2.42;;
19205;SDS011;59358;52.134;5.596;2023-03-05T15:02:53;4.13;;;1.67;;
19205;SDS011;59358;52.134;5.596;2023-03-05T15:05:21;4.32;;;1.70;;
19205;SDS011;59358;52.134;5.596;2023-03-05T15:07:49;4.78;;;2.65;;
19205;SDS011;59358;52.134;5.596;2023-03-05T15:10:20;13.68;;;7.22;;
19205;SDS011;59358;52.134;5.596;2023-03-05T15:12:50;8.10;;;4.30;;
19205;SDS011;59358;52.134;5.596;2023-03-05T15:15:18;6.22;;;3.25;;
19205;SDS011;59358;52.134;5.596;2023-03-05T15:17:46;4.93;;;2.42;;
19205;SDS011;59358;52.134;5.596;2023-03-05T15:22:45;5.03;;;1.85;;
19205;SDS011;59358;52.134;5.596;2023-03-05T15:25:12;7.43;;;3.50;;
19205;SDS011;59358;52.134;5.596;2023-03-05T15:27:40;4.15;;;2.33;;